Darlington, Missouri
Current Conditions -  °F | °C
As of 3:21 PM on Monday 22 Dec 2014 (Local Time) from KLWD Reporting Station
Light Rain Light Rain  
Wind Chill: 36°   Ceiling: 400
Heat Index: 41°   Visibility: 3mi
Dew Point: 40°   Wind: 7mph
Humidity: 96%   Direction: 140°SE
Pressure: 29.44"   Gusts: NA
Location:  40.2°N, 94.4°W
Report Text: KLWD 222121Z AUTO 14006KT 3SM -RA BR OVC004 05/04 A2944 RMK AO2 RAE2056B12 P0000 T00500044
Loading
Personal Weather Stations






























Interactive Weather Map New forecast layout! Learn more

10-Day Weather Forecast

Advertisements
Track Severe Weather on mobile